FEA YSSY-YSRI
Flight info
| Callsign | FEA |
|---|---|
| Flight time | 0h 11m |
| Altitude | 4000 |
| Route | DCT |
| Aircraft | C700/L-SDE3L/L |
Departure
| Time | 2026-05-06 06:14 |
|---|---|
| Airport | Sydney Kingsford Smith International Airport (YSSY) |
Arrival
| Time | 2026-05-06 06:26 |
|---|---|
| Airport | RAAF Base Richmond (YSRI) |
| Time | Latitude | Longitude | Altitude | Speed | Heading |
|---|---|---|---|---|---|
| 2026-05-06 05:44 | -33.93483 | 151.19019 | 23 ft | 0 kts | 345° |
| 2026-05-06 05:59 | -33.93481 | 151.19015 | 23 ft | 1 kts | 302° |
| 2026-05-06 05:59 | -33.93485 | 151.19009 | 23 ft | 0 kts | 223° |
| 2026-05-06 06:02 | -33.93488 | 151.19000 | 24 ft | 0 kts | 249° |
| 2026-05-06 06:02 | -33.93491 | 151.18990 | 24 ft | 0 kts | 248° |
| 2026-05-06 06:03 | -33.93491 | 151.18989 | 24 ft | 0 kts | 248° |
| 2026-05-06 06:03 | -33.93492 | 151.18987 | 24 ft | 1 kts | 248° |
| 2026-05-06 06:03 | -33.93494 | 151.18980 | 26 ft | 0 kts | 248° |
| 2026-05-06 06:05 | -33.93501 | 151.18977 | 26 ft | 6 kts | 193° |
| 2026-05-06 06:05 | -33.93525 | 151.18985 | 23 ft | 0 kts | 160° |
| 2026-05-06 06:05 | -33.93526 | 151.18985 | 23 ft | 0 kts | 160° |
| 2026-05-06 06:06 | -33.93528 | 151.18990 | 22 ft | 0 kts | 112° |
| 2026-05-06 06:06 | -33.93528 | 151.18992 | 22 ft | 0 kts | 113° |
| 2026-05-06 06:07 | -33.93553 | 151.19006 | 24 ft | 9 kts | 177° |
| 2026-05-06 06:07 | -33.93576 | 151.18985 | 20 ft | 8 kts | 261° |
| 2026-05-06 06:08 | -33.93593 | 151.18886 | 24 ft | 14 kts | 261° |
| 2026-05-06 06:08 | -33.93612 | 151.18761 | 27 ft | 17 kts | 255° |
| 2026-05-06 06:08 | -33.93646 | 151.18610 | 25 ft | 20 kts | 254° |
| 2026-05-06 06:08 | -33.93687 | 151.18435 | 25 ft | 23 kts | 254° |
| 2026-05-06 06:09 | -33.93733 | 151.18242 | 25 ft | 23 kts | 254° |
| 2026-05-06 06:09 | -33.93769 | 151.18083 | 27 ft | 13 kts | 254° |
| 2026-05-06 06:09 | -33.93799 | 151.17961 | 25 ft | 18 kts | 253° |
| 2026-05-06 06:09 | -33.93835 | 151.17807 | 16 ft | 17 kts | 254° |
| 2026-05-06 06:10 | -33.93874 | 151.17647 | 13 ft | 22 kts | 253° |
| 2026-05-06 06:10 | -33.93894 | 151.17561 | 13 ft | 6 kts | 256° |
| 2026-05-06 06:10 | -33.93896 | 151.17554 | 13 ft | 3 kts | 255° |
| 2026-05-06 06:10 | -33.93897 | 151.17548 | 13 ft | 0 kts | 255° |
| 2026-05-06 06:12 | -33.93902 | 151.17526 | 13 ft | 14 kts | 254° |
| 2026-05-06 06:13 | -33.93974 | 151.17428 | 12 ft | 6 kts | 169° |
| 2026-05-06 06:13 | -33.93975 | 151.17428 | 12 ft | 0 kts | 169° |
| 2026-05-06 06:14 | -33.93987 | 151.17431 | 12 ft | 16 kts | 168° |
| 2026-05-06 06:14 | -33.94436 | 151.17550 | 18 ft | 117 kts | 167° |
| 2026-05-06 06:14 | -33.95483 | 151.17741 | 422 ft | 168 kts | 170° |
| 2026-05-06 06:14 | -33.96841 | 151.17884 | 1074 ft | 228 kts | 181° |
| 2026-05-06 06:15 | -33.98352 | 151.17219 | 1755 ft | 229 kts | 216° |
| 2026-05-06 06:15 | -33.99672 | 151.15866 | 2687 ft | 272 kts | 223° |
| 2026-05-06 06:15 | -34.01175 | 151.14260 | 3600 ft | 282 kts | 223° |
| 2026-05-06 06:15 | -34.02607 | 151.12757 | 4066 ft | 269 kts | 223° |
| 2026-05-06 06:16 | -34.04041 | 151.11262 | 4063 ft | 274 kts | 223° |
| 2026-05-06 06:16 | -34.05472 | 151.09770 | 4068 ft | 270 kts | 223° |
| 2026-05-06 06:16 | -34.06883 | 151.08303 | 4063 ft | 266 kts | 223° |
| 2026-05-06 06:16 | -34.07805 | 151.07341 | 4065 ft | 263 kts | 223° |
| 2026-05-06 06:17 | -34.08997 | 151.04894 | 4058 ft | 259 kts | 262° |
| 2026-05-06 06:17 | -34.08806 | 151.02760 | 4065 ft | 257 kts | 292° |
| 2026-05-06 06:17 | -34.07718 | 151.01081 | 4061 ft | 258 kts | 323° |
| 2026-05-06 06:17 | -34.06077 | 151.00216 | 4071 ft | 260 kts | 343° |
| 2026-05-06 06:18 | -34.04914 | 150.99867 | 4076 ft | 261 kts | 346° |
| 2026-05-06 06:18 | -34.03135 | 150.99404 | 4082 ft | 262 kts | 347° |
| 2026-05-06 06:18 | -34.01339 | 150.98961 | 4081 ft | 268 kts | 348° |
| 2026-05-06 06:18 | -33.99423 | 150.98491 | 4079 ft | 293 kts | 348° |
| 2026-05-06 06:19 | -33.97385 | 150.97988 | 4081 ft | 303 kts | 348° |
| 2026-05-06 06:19 | -33.95309 | 150.97475 | 4078 ft | 304 kts | 347° |
| 2026-05-06 06:19 | -33.93232 | 150.96962 | 4078 ft | 303 kts | 348° |
| 2026-05-06 06:19 | -33.91192 | 150.96460 | 4079 ft | 302 kts | 347° |
| 2026-05-06 06:20 | -33.89124 | 150.95950 | 4073 ft | 302 kts | 348° |
| 2026-05-06 06:20 | -33.87066 | 150.95440 | 4075 ft | 301 kts | 348° |
| 2026-05-06 06:20 | -33.85016 | 150.94930 | 4073 ft | 302 kts | 348° |
| 2026-05-06 06:20 | -33.82960 | 150.94420 | 4072 ft | 302 kts | 347° |
| 2026-05-06 06:21 | -33.80901 | 150.93910 | 4065 ft | 302 kts | 347° |
| 2026-05-06 06:21 | -33.78844 | 150.93400 | 4061 ft | 302 kts | 347° |
| 2026-05-06 06:21 | -33.76782 | 150.92887 | 4058 ft | 302 kts | 347° |
| 2026-05-06 06:21 | -33.74726 | 150.92375 | 4070 ft | 302 kts | 347° |
| 2026-05-06 06:22 | -33.72734 | 150.91809 | 4062 ft | 290 kts | 340° |
| 2026-05-06 06:22 | -33.71053 | 150.90655 | 4059 ft | 269 kts | 321° |
| 2026-05-06 06:22 | -33.69747 | 150.89264 | 4045 ft | 216 kts | 317° |
| 2026-05-06 06:22 | -33.68723 | 150.88115 | 4068 ft | 201 kts | 316° |
| 2026-05-06 06:23 | -33.67639 | 150.87074 | 3879 ft | 202 kts | 330° |
| 2026-05-06 06:23 | -33.66284 | 150.86405 | 3385 ft | 215 kts | 340° |
| 2026-05-06 06:23 | -33.65001 | 150.85742 | 2439 ft | 190 kts | 336° |
| 2026-05-06 06:23 | -33.63862 | 150.85149 | 1889 ft | 167 kts | 335° |
| 2026-05-06 06:24 | -33.63016 | 150.84336 | 1356 ft | 151 kts | 315° |
| 2026-05-06 06:24 | -33.62338 | 150.83549 | 1111 ft | 134 kts | 315° |
| 2026-05-06 06:24 | -33.61718 | 150.82644 | 777 ft | 137 kts | 304° |
| 2026-05-06 06:24 | -33.61337 | 150.81647 | 385 ft | 127 kts | 292° |
| 2026-05-06 06:25 | -33.61067 | 150.80674 | 222 ft | 122 kts | 284° |
| 2026-05-06 06:25 | -33.60826 | 150.79669 | 156 ft | 127 kts | 289° |
| 2026-05-06 06:25 | -33.60408 | 150.78061 | 69 ft | 61 kts | 289° |
| 2026-05-06 06:26 | -33.60310 | 150.77703 | 70 ft | 11 kts | 287° |
| 2026-05-06 06:26 | -33.60284 | 150.77613 | 71 ft | 12 kts | 304° |
| 2026-05-06 06:26 | -33.60211 | 150.77603 | 66 ft | 12 kts | 14° |
| 2026-05-06 06:26 | -33.60189 | 150.77683 | 74 ft | 14 kts | 108° |
| 2026-05-06 06:27 | -33.60224 | 150.77819 | 68 ft | 19 kts | 107° |
| 2026-05-06 06:27 | -33.60266 | 150.77987 | 66 ft | 22 kts | 106° |
| 2026-05-06 06:27 | -33.60314 | 150.78178 | 63 ft | 26 kts | 107° |
| 2026-05-06 06:27 | -33.60359 | 150.78396 | 70 ft | 28 kts | 90° |
| 2026-05-06 06:28 | -33.60346 | 150.78643 | 67 ft | 31 kts | 85° |
| 2026-05-06 06:28 | -33.60367 | 150.78783 | 65 ft | 9 kts | 116° |
| 2026-05-06 06:28 | -33.60376 | 150.78805 | 65 ft | 2 kts | 120° |
| 2026-05-06 06:28 | -33.60407 | 150.78822 | 64 ft | 7 kts | 190° |
| 2026-05-06 06:29 | -33.60422 | 150.78817 | 63 ft | 0 kts | 197° |
| 2026-05-06 06:29 | -33.60426 | 150.78816 | 63 ft | 0 kts | 194° |